Aeroporto :
LOGIN :

Iscrizione | Disclaimer

   EN    FR    IT 

 










Sommario :    VFR   VFR Marginale   IFR   IFR Intensivo   IFR Molto Intensivo
Visibilità : 
Base nubi : 
>= 8 km
>= 3000ft
5 / 8 km
1000 / 3000 ft
1500m / 5 km
500 / 1000 ft
800 / 1500m
200 / 500 ft
< 800m
< 200 ft
Simboli :   Temporali  Nebbia  Neve Forte  Precipitazioni Forti  Vento > 20 kt
SIGMETs :   Varie  Temporali  Ghiacco  Turbolenza  Onda orograficha  Ceneri Vulcaniche






- Altitudine del aeroporto : 1213 ft
- Codice IATA : SCQ


LEST - Santiago de Compostela

ULTIMO METAR :
  • 021300Z 03011KT 350V050 9999 FEW014 BKN022 BKN032 11/08 Q1017 NOSIG

METARs OBSOLETI :
  • 021230Z 03009KT 350V060 9999 SCT016 BKN024 BKN036 11/08 Q1018 NOSIG
  • 021200Z 03011KT 010V070 9999 FEW016 SCT026 BKN036 12/09 Q1018 NOSIG
  • 021130Z 04009KT 010V080 9999 SCT014 SCT022 BKN035 11/08 Q1018 NOSIG
  • 021100Z 03009KT 350V070 9999 SCT018 BKN028 BKN035 11/08 Q1018 NOSIG
  • 021030Z 04009KT 010V070 9999 SCT015 BKN022 BKN032 11/08 Q1018 NOSIG

TAF TAF LEST
Valido dal 02 a 12 ore il 03 a 12 ore UTC


021100Z 0212/0312 02008KT 9999 SCT020 TX16/0215Z TN04/0306Z
PROB40
TEMPO 0300/0309 3000 BR BKN010
PROB30
TEMPO 0300/0309 0800 BCFG BKN002



MetMap, La meteo Aeronautica in un colpo d'occhio ! - Copyright ORBIFLY Dicembre 2007 - Disclaimer

ORBIFLY MET'MAP TEAM :

Programmazione e sviluppo : Alexandra Zaïnal
Concezione : Baudouin d'Aumeries
Aiuto per la programmazione : Marc-Olivier Méhu
Supporto tecnico e logistico : Manuel Goepfert
Aiuto per la traduzione : Arnaldo La Scala

Contatto : metmap@orbifly.com




FONTI E CREDITI :

   NOAA